sensor_id;sensor_type;location;lat;lon;timestamp;P1;durP1;ratioP1;P2;durP2;ratioP2
24631;SDS011;59977;48.782;9.190;2023-07-31T00:02:14;9.68;;;2.20;;
24631;SDS011;59977;48.782;9.190;2023-07-31T00:04:40;7.88;;;2.05;;
24631;SDS011;59977;48.782;9.190;2023-07-31T00:07:06;7.38;;;1.83;;
24631;SDS011;59977;48.782;9.190;2023-07-31T00:09:32;5.63;;;2.60;;
24631;SDS011;59977;48.782;9.190;2023-07-31T00:11:58;8.20;;;2.78;;
24631;SDS011;59977;48.782;9.190;2023-07-31T00:14:24;12.57;;;2.58;;
24631;SDS011;59977;48.782;9.190;2023-07-31T00:16:50;10.10;;;2.58;;
24631;SDS011;59977;48.782;9.190;2023-07-31T00:19:16;7.80;;;2.17;;
24631;SDS011;59977;48.782;9.190;2023-07-31T00:21:41;9.45;;;1.90;;
24631;SDS011;59977;48.782;9.190;2023-07-31T00:24:07;7.85;;;2.35;;
24631;SDS011;59977;48.782;9.190;2023-07-31T00:26:33;5.60;;;1.70;;
24631;SDS011;59977;48.782;9.190;2023-07-31T00:28:59;8.57;;;2.45;;
24631;SDS011;59977;48.782;9.190;2023-07-31T00:31:24;7.65;;;2.55;;
24631;SDS011;59977;48.782;9.190;2023-07-31T00:33:50;5.03;;;2.10;;
24631;SDS011;59977;48.782;9.190;2023-07-31T00:36:16;10.25;;;2.35;;
24631;SDS011;59977;48.782;9.190;2023-07-31T00:38:42;4.28;;;1.80;;
24631;SDS011;59977;48.782;9.190;2023-07-31T00:41:09;10.73;;;2.63;;
24631;SDS011;59977;48.782;9.190;2023-07-31T00:43:34;4.75;;;1.60;;
24631;SDS011;59977;48.782;9.190;2023-07-31T00:46:00;3.65;;;1.58;;
24631;SDS011;59977;48.782;9.190;2023-07-31T00:48:26;6.85;;;1.85;;
24631;SDS011;59977;48.782;9.190;2023-07-31T00:50:52;6.78;;;1.92;;
24631;SDS011;59977;48.782;9.190;2023-07-31T00:53:18;5.25;;;1.73;;
24631;SDS011;59977;48.782;9.190;2023-07-31T00:55:44;5.80;;;2.03;;
24631;SDS011;59977;48.782;9.190;2023-07-31T00:58:10;5.97;;;1.73;;
24631;SDS011;59977;48.782;9.190;2023-07-31T01:00:36;7.10;;;1.95;;
24631;SDS011;59977;48.782;9.190;2023-07-31T01:03:01;6.03;;;1.77;;
24631;SDS011;59977;48.782;9.190;2023-07-31T01:05:37;5.57;;;1.60;;
24631;SDS011;59977;48.782;9.190;2023-07-31T01:08:13;4.72;;;1.60;;
24631;SDS011;59977;48.782;9.190;2023-07-31T01:10:49;4.13;;;1.70;;
24631;SDS011;59977;48.782;9.190;2023-07-31T01:13:19;7.85;;;1.70;;
24631;SDS011;59977;48.782;9.190;2023-07-31T01:15:46;9.07;;;1.70;;
24631;SDS011;59977;48.782;9.190;2023-07-31T01:18:12;4.38;;;1.70;;
24631;SDS011;59977;48.782;9.190;2023-07-31T01:20:38;4.40;;;1.60;;
24631;SDS011;59977;48.782;9.190;2023-07-31T01:28:20;6.15;;;2.00;;
24631;SDS011;59977;48.782;9.190;2023-07-31T01:30:49;5.15;;;1.70;;
24631;SDS011;59977;48.782;9.190;2023-07-31T01:33:15;6.22;;;1.67;;
24631;SDS011;59977;48.782;9.190;2023-07-31T01:35:42;5.50;;;1.90;;
24631;SDS011;59977;48.782;9.190;2023-07-31T01:38:09;3.92;;;1.45;;
24631;SDS011;59977;48.782;9.190;2023-07-31T01:40:35;4.07;;;1.55;;
24631;SDS011;59977;48.782;9.190;2023-07-31T01:43:01;4.43;;;1.90;;
24631;SDS011;59977;48.782;9.190;2023-07-31T01:45:27;7.93;;;1.80;;
24631;SDS011;59977;48.782;9.190;2023-07-31T01:47:53;6.07;;;1.70;;
24631;SDS011;59977;48.782;9.190;2023-07-31T01:50:19;5.05;;;2.28;;
24631;SDS011;59977;48.782;9.190;2023-07-31T01:52:45;4.93;;;1.80;;
24631;SDS011;59977;48.782;9.190;2023-07-31T01:55:10;10.15;;;2.15;;
24631;SDS011;59977;48.782;9.190;2023-07-31T01:57:36;16.30;;;1.90;;
24631;SDS011;59977;48.782;9.190;2023-07-31T02:00:02;5.68;;;1.90;;
24631;SDS011;59977;48.782;9.190;2023-07-31T02:02:29;2.95;;;1.65;;
24631;SDS011;59977;48.782;9.190;2023-07-31T02:04:54;7.85;;;1.90;;
24631;SDS011;59977;48.782;9.190;2023-07-31T02:07:20;7.68;;;1.83;;
24631;SDS011;59977;48.782;9.190;2023-07-31T02:09:46;4.15;;;2.08;;
24631;SDS011;59977;48.782;9.190;2023-07-31T02:12:12;7.25;;;2.10;;
24631;SDS011;59977;48.782;9.190;2023-07-31T02:14:39;6.40;;;1.92;;
24631;SDS011;59977;48.782;9.190;2023-07-31T02:17:05;6.95;;;2.10;;
24631;SDS011;59977;48.782;9.190;2023-07-31T02:19:31;6.45;;;1.77;;
24631;SDS011;59977;48.782;9.190;2023-07-31T02:21:57;11.07;;;1.88;;
24631;SDS011;59977;48.782;9.190;2023-07-31T02:24:23;4.40;;;1.67;;
24631;SDS011;59977;48.782;9.190;2023-07-31T02:26:49;7.05;;;1.92;;
24631;SDS011;59977;48.782;9.190;2023-07-31T02:29:15;5.32;;;1.75;;
24631;SDS011;59977;48.782;9.190;2023-07-31T02:31:41;7.43;;;2.03;;
24631;SDS011;59977;48.782;9.190;2023-07-31T02:34:07;8.95;;;2.05;;
24631;SDS011;59977;48.782;9.190;2023-07-31T02:36:32;11.88;;;1.70;;
24631;SDS011;59977;48.782;9.190;2023-07-31T02:38:58;6.35;;;1.70;;
24631;SDS011;59977;48.782;9.190;2023-07-31T02:41:24;7.93;;;1.80;;
24631;SDS011;59977;48.782;9.190;2023-07-31T02:43:50;6.40;;;1.92;;
24631;SDS011;59977;48.782;9.190;2023-07-31T02:46:15;4.57;;;1.90;;
24631;SDS011;59977;48.782;9.190;2023-07-31T02:48:41;2.72;;;1.60;;
24631;SDS011;59977;48.782;9.190;2023-07-31T02:51:07;7.50;;;1.75;;
24631;SDS011;59977;48.782;9.190;2023-07-31T02:53:33;6.38;;;1.80;;
24631;SDS011;59977;48.782;9.190;2023-07-31T02:55:58;7.30;;;1.80;;
24631;SDS011;59977;48.782;9.190;2023-07-31T02:58:24;5.13;;;1.95;;
24631;SDS011;59977;48.782;9.190;2023-07-31T03:00:49;3.83;;;1.85;;
24631;SDS011;59977;48.782;9.190;2023-07-31T03:03:15;11.85;;;1.80;;
24631;SDS011;59977;48.782;9.190;2023-07-31T03:05:41;7.32;;;2.20;;
24631;SDS011;59977;48.782;9.190;2023-07-31T03:08:07;8.20;;;1.67;;
24631;SDS011;59977;48.782;9.190;2023-07-31T03:10:33;2.95;;;1.60;;
24631;SDS011;59977;48.782;9.190;2023-07-31T03:12:58;6.22;;;2.10;;
24631;SDS011;59977;48.782;9.190;2023-07-31T03:15:24;3.53;;;1.60;;
24631;SDS011;59977;48.782;9.190;2023-07-31T03:17:50;7.32;;;1.92;;
24631;SDS011;59977;48.782;9.190;2023-07-31T03:20:16;5.90;;;1.85;;
24631;SDS011;59977;48.782;9.190;2023-07-31T03:22:41;5.30;;;1.60;;
24631;SDS011;59977;48.782;9.190;2023-07-31T03:25:07;5.05;;;2.33;;
24631;SDS011;59977;48.782;9.190;2023-07-31T03:27:34;6.80;;;1.70;;
24631;SDS011;59977;48.782;9.190;2023-07-31T03:30:00;5.22;;;2.10;;
24631;SDS011;59977;48.782;9.190;2023-07-31T03:32:27;5.82;;;1.90;;
24631;SDS011;59977;48.782;9.190;2023-07-31T03:34:52;4.18;;;1.60;;
24631;SDS011;59977;48.782;9.190;2023-07-31T03:37:18;9.73;;;2.00;;
24631;SDS011;59977;48.782;9.190;2023-07-31T03:39:44;6.97;;;2.13;;
24631;SDS011;59977;48.782;9.190;2023-07-31T03:42:10;10.40;;;2.13;;
24631;SDS011;59977;48.782;9.190;2023-07-31T03:44:35;7.90;;;2.03;;
24631;SDS011;59977;48.782;9.190;2023-07-31T03:47:01;7.78;;;2.17;;
24631;SDS011;59977;48.782;9.190;2023-07-31T03:49:26;5.20;;;1.80;;
24631;SDS011;59977;48.782;9.190;2023-07-31T03:51:53;7.10;;;1.90;;
24631;SDS011;59977;48.782;9.190;2023-07-31T03:54:18;11.68;;;2.00;;
24631;SDS011;59977;48.782;9.190;2023-07-31T03:56:44;6.60;;;1.77;;
24631;SDS011;59977;48.782;9.190;2023-07-31T03:59:10;15.48;;;2.60;;
24631;SDS011;59977;48.782;9.190;2023-07-31T04:01:36;5.85;;;2.33;;
24631;SDS011;59977;48.782;9.190;2023-07-31T04:04:02;5.47;;;2.00;;
24631;SDS011;59977;48.782;9.190;2023-07-31T04:06:27;15.80;;;3.40;;
24631;SDS011;59977;48.782;9.190;2023-07-31T04:08:53;14.30;;;4.15;;
24631;SDS011;59977;48.782;9.190;2023-07-31T04:11:19;15.10;;;3.72;;
24631;SDS011;59977;48.782;9.190;2023-07-31T04:13:45;15.38;;;3.45;;
24631;SDS011;59977;48.782;9.190;2023-07-31T04:16:11;15.52;;;3.42;;
24631;SDS011;59977;48.782;9.190;2023-07-31T04:18:37;29.02;;;4.10;;
24631;SDS011;59977;48.782;9.190;2023-07-31T04:21:03;13.25;;;3.25;;
24631;SDS011;59977;48.782;9.190;2023-07-31T04:23:29;20.25;;;3.65;;
24631;SDS011;59977;48.782;9.190;2023-07-31T04:25:55;21.98;;;3.85;;
24631;SDS011;59977;48.782;9.190;2023-07-31T04:28:21;17.48;;;4.03;;
24631;SDS011;59977;48.782;9.190;2023-07-31T04:30:47;10.82;;;3.35;;
24631;SDS011;59977;48.782;9.190;2023-07-31T04:33:13;7.38;;;2.70;;
24631;SDS011;59977;48.782;9.190;2023-07-31T04:35:39;9.95;;;2.08;;
24631;SDS011;59977;48.782;9.190;2023-07-31T04:38:05;8.63;;;2.90;;
24631;SDS011;59977;48.782;9.190;2023-07-31T04:40:31;11.52;;;3.05;;
24631;SDS011;59977;48.782;9.190;2023-07-31T04:42:56;7.20;;;2.42;;
24631;SDS011;59977;48.782;9.190;2023-07-31T04:45:22;22.77;;;3.40;;
24631;SDS011;59977;48.782;9.190;2023-07-31T04:47:48;11.93;;;3.00;;
24631;SDS011;59977;48.782;9.190;2023-07-31T04:50:14;7.43;;;2.38;;
24631;SDS011;59977;48.782;9.190;2023-07-31T04:52:40;11.77;;;2.35;;
24631;SDS011;59977;48.782;9.190;2023-07-31T04:55:06;7.72;;;2.60;;
24631;SDS011;59977;48.782;9.190;2023-07-31T04:57:33;14.60;;;2.42;;
24631;SDS011;59977;48.782;9.190;2023-07-31T04:59:58;11.32;;;2.20;;
24631;SDS011;59977;48.782;9.190;2023-07-31T05:02:24;6.45;;;2.10;;
24631;SDS011;59977;48.782;9.190;2023-07-31T05:04:50;5.20;;;2.20;;
24631;SDS011;59977;48.782;9.190;2023-07-31T05:07:15;10.15;;;2.00;;
24631;SDS011;59977;48.782;9.190;2023-07-31T05:09:42;5.90;;;2.17;;
24631;SDS011;59977;48.782;9.190;2023-07-31T05:12:08;6.63;;;2.10;;
24631;SDS011;59977;48.782;9.190;2023-07-31T05:14:34;10.45;;;2.30;;
24631;SDS011;59977;48.782;9.190;2023-07-31T05:16:59;13.00;;;1.85;;
24631;SDS011;59977;48.782;9.190;2023-07-31T05:19:25;4.70;;;1.60;;
24631;SDS011;59977;48.782;9.190;2023-07-31T05:21:51;6.40;;;2.05;;
24631;SDS011;59977;48.782;9.190;2023-07-31T05:24:17;6.95;;;1.77;;
24631;SDS011;59977;48.782;9.190;2023-07-31T05:26:42;8.85;;;2.03;;
24631;SDS011;59977;48.782;9.190;2023-07-31T05:29:08;3.85;;;2.03;;
24631;SDS011;59977;48.782;9.190;2023-07-31T05:31:34;7.03;;;2.10;;
24631;SDS011;59977;48.782;9.190;2023-07-31T05:34:00;9.82;;;2.83;;
24631;SDS011;59977;48.782;9.190;2023-07-31T05:36:26;13.50;;;3.00;;
24631;SDS011;59977;48.782;9.190;2023-07-31T05:38:52;8.88;;;2.92;;
24631;SDS011;59977;48.782;9.190;2023-07-31T05:41:18;10.88;;;2.63;;
24631;SDS011;59977;48.782;9.190;2023-07-31T05:43:44;12.93;;;3.58;;
24631;SDS011;59977;48.782;9.190;2023-07-31T05:46:10;16.00;;;3.22;;
24631;SDS011;59977;48.782;9.190;2023-07-31T05:48:37;12.88;;;3.20;;
24631;SDS011;59977;48.782;9.190;2023-07-31T05:51:03;9.82;;;2.15;;
24631;SDS011;59977;48.782;9.190;2023-07-31T05:53:29;8.18;;;2.53;;
24631;SDS011;59977;48.782;9.190;2023-07-31T05:55:55;7.60;;;2.00;;
24631;SDS011;59977;48.782;9.190;2023-07-31T05:58:21;9.77;;;2.25;;
24631;SDS011;59977;48.782;9.190;2023-07-31T06:00:47;7.53;;;1.90;;
24631;SDS011;59977;48.782;9.190;2023-07-31T06:03:13;7.40;;;2.05;;
24631;SDS011;59977;48.782;9.190;2023-07-31T06:05:39;6.00;;;2.22;;
24631;SDS011;59977;48.782;9.190;2023-07-31T06:08:05;6.72;;;2.08;;
24631;SDS011;59977;48.782;9.190;2023-07-31T06:10:31;12.48;;;2.15;;
24631;SDS011;59977;48.782;9.190;2023-07-31T06:12:57;8.60;;;2.15;;
24631;SDS011;59977;48.782;9.190;2023-07-31T06:15:23;14.95;;;2.30;;
24631;SDS011;59977;48.782;9.190;2023-07-31T06:17:49;10.48;;;2.42;;
24631;SDS011;59977;48.782;9.190;2023-07-31T06:20:15;15.30;;;2.50;;
24631;SDS011;59977;48.782;9.190;2023-07-31T06:22:41;10.38;;;2.20;;
24631;SDS011;59977;48.782;9.190;2023-07-31T06:25:07;4.57;;;1.63;;
24631;SDS011;59977;48.782;9.190;2023-07-31T06:27:34;6.07;;;2.10;;
24631;SDS011;59977;48.782;9.190;2023-07-31T06:30:00;5.93;;;1.80;;
24631;SDS011;59977;48.782;9.190;2023-07-31T06:32:26;8.68;;;1.80;;
24631;SDS011;59977;48.782;9.190;2023-07-31T06:34:52;7.80;;;2.25;;
24631;SDS011;59977;48.782;9.190;2023-07-31T06:37:19;7.57;;;2.05;;
24631;SDS011;59977;48.782;9.190;2023-07-31T06:39:45;6.22;;;2.00;;
24631;SDS011;59977;48.782;9.190;2023-07-31T06:42:11;6.10;;;2.03;;
24631;SDS011;59977;48.782;9.190;2023-07-31T06:44:36;9.43;;;1.90;;
24631;SDS011;59977;48.782;9.190;2023-07-31T06:47:02;5.85;;;2.05;;
24631;SDS011;59977;48.782;9.190;2023-07-31T06:49:28;8.30;;;2.50;;
24631;SDS011;59977;48.782;9.190;2023-07-31T06:51:54;6.88;;;2.05;;
24631;SDS011;59977;48.782;9.190;2023-07-31T06:54:20;3.55;;;1.85;;
24631;SDS011;59977;48.782;9.190;2023-07-31T06:56:46;7.68;;;2.05;;
24631;SDS011;59977;48.782;9.190;2023-07-31T06:59:12;7.47;;;2.25;;
24631;SDS011;59977;48.782;9.190;2023-07-31T07:01:38;6.75;;;2.03;;
24631;SDS011;59977;48.782;9.190;2023-07-31T07:04:04;6.32;;;2.05;;
24631;SDS011;59977;48.782;9.190;2023-07-31T07:06:30;4.95;;;2.20;;
24631;SDS011;59977;48.782;9.190;2023-07-31T07:08:56;4.45;;;1.95;;
24631;SDS011;59977;48.782;9.190;2023-07-31T07:11:22;8.32;;;2.10;;
24631;SDS011;59977;48.782;9.190;2023-07-31T07:13:47;9.15;;;2.20;;
24631;SDS011;59977;48.782;9.190;2023-07-31T07:16:14;11.18;;;2.08;;
24631;SDS011;59977;48.782;9.190;2023-07-31T07:18:40;8.15;;;2.33;;
24631;SDS011;59977;48.782;9.190;2023-07-31T07:21:06;6.85;;;2.53;;
24631;SDS011;59977;48.782;9.190;2023-07-31T07:23:32;8.00;;;2.17;;
24631;SDS011;59977;48.782;9.190;2023-07-31T07:25:58;6.35;;;2.10;;
24631;SDS011;59977;48.782;9.190;2023-07-31T07:28:24;5.85;;;2.17;;
24631;SDS011;59977;48.782;9.190;2023-07-31T07:30:53;4.63;;;2.10;;
24631;SDS011;59977;48.782;9.190;2023-07-31T07:33:19;5.85;;;2.10;;
24631;SDS011;59977;48.782;9.190;2023-07-31T07:35:45;13.35;;;2.33;;
24631;SDS011;59977;48.782;9.190;2023-07-31T07:38:11;8.82;;;2.13;;
24631;SDS011;59977;48.782;9.190;2023-07-31T07:40:40;10.52;;;2.38;;
24631;SDS011;59977;48.782;9.190;2023-07-31T07:43:06;8.18;;;2.40;;
24631;SDS011;59977;48.782;9.190;2023-07-31T07:45:32;8.32;;;2.88;;
24631;SDS011;59977;48.782;9.190;2023-07-31T07:47:58;7.40;;;2.05;;
24631;SDS011;59977;48.782;9.190;2023-07-31T07:50:24;12.02;;;2.25;;
24631;SDS011;59977;48.782;9.190;2023-07-31T07:52:50;5.88;;;2.10;;
24631;SDS011;59977;48.782;9.190;2023-07-31T07:55:16;6.05;;;2.50;;
24631;SDS011;59977;48.782;9.190;2023-07-31T07:57:42;8.70;;;2.33;;
24631;SDS011;59977;48.782;9.190;2023-07-31T08:00:09;9.23;;;2.30;;
24631;SDS011;59977;48.782;9.190;2023-07-31T08:02:36;6.47;;;2.22;;
24631;SDS011;59977;48.782;9.190;2023-07-31T08:05:02;7.45;;;2.35;;
24631;SDS011;59977;48.782;9.190;2023-07-31T08:07:28;8.25;;;2.28;;
24631;SDS011;59977;48.782;9.190;2023-07-31T08:09:54;14.55;;;2.53;;
24631;SDS011;59977;48.782;9.190;2023-07-31T08:12:20;7.20;;;2.25;;
24631;SDS011;59977;48.782;9.190;2023-07-31T08:14:46;5.20;;;2.45;;
24631;SDS011;59977;48.782;9.190;2023-07-31T08:17:12;8.70;;;2.30;;
24631;SDS011;59977;48.782;9.190;2023-07-31T08:19:38;6.93;;;2.33;;
24631;SDS011;59977;48.782;9.190;2023-07-31T08:22:04;12.75;;;2.55;;
24631;SDS011;59977;48.782;9.190;2023-07-31T08:24:29;6.72;;;2.53;;
24631;SDS011;59977;48.782;9.190;2023-07-31T08:26:55;7.32;;;2.28;;
24631;SDS011;59977;48.782;9.190;2023-07-31T08:29:21;8.07;;;2.50;;
24631;SDS011;59977;48.782;9.190;2023-07-31T08:31:47;8.90;;;2.60;;
24631;SDS011;59977;48.782;9.190;2023-07-31T08:34:13;6.50;;;2.55;;
24631;SDS011;59977;48.782;9.190;2023-07-31T08:36:39;7.70;;;2.45;;
24631;SDS011;59977;48.782;9.190;2023-07-31T08:39:05;6.07;;;2.28;;
24631;SDS011;59977;48.782;9.190;2023-07-31T08:41:31;7.50;;;2.47;;
24631;SDS011;59977;48.782;9.190;2023-07-31T08:43:57;11.00;;;2.53;;
24631;SDS011;59977;48.782;9.190;2023-07-31T08:46:24;8.77;;;2.80;;
24631;SDS011;59977;48.782;9.190;2023-07-31T08:48:50;10.90;;;3.30;;
24631;SDS011;59977;48.782;9.190;2023-07-31T08:51:17;12.45;;;3.15;;
24631;SDS011;59977;48.782;9.190;2023-07-31T08:53:43;8.02;;;2.78;;
24631;SDS011;59977;48.782;9.190;2023-07-31T08:56:10;7.60;;;2.45;;
24631;SDS011;59977;48.782;9.190;2023-07-31T08:58:37;15.93;;;3.72;;
24631;SDS011;59977;48.782;9.190;2023-07-31T09:01:04;9.43;;;2.67;;
24631;SDS011;59977;48.782;9.190;2023-07-31T09:03:33;6.30;;;2.63;;
24631;SDS011;59977;48.782;9.190;2023-07-31T09:06:00;7.35;;;2.40;;
24631;SDS011;59977;48.782;9.190;2023-07-31T09:08:29;9.20;;;2.67;;
24631;SDS011;59977;48.782;9.190;2023-07-31T09:10:58;6.60;;;2.38;;
24631;SDS011;59977;48.782;9.190;2023-07-31T09:13:27;7.50;;;2.90;;
24631;SDS011;59977;48.782;9.190;2023-07-31T09:15:53;13.88;;;3.15;;
24631;SDS011;59977;48.782;9.190;2023-07-31T09:18:19;6.85;;;2.33;;
24631;SDS011;59977;48.782;9.190;2023-07-31T09:21:00;11.93;;;2.42;;
24631;SDS011;59977;48.782;9.190;2023-07-31T09:23:26;15.20;;;3.90;;
24631;SDS011;59977;48.782;9.190;2023-07-31T09:26:06;21.55;;;4.15;;
24631;SDS011;59977;48.782;9.190;2023-07-31T09:28:32;10.20;;;2.90;;
24631;SDS011;59977;48.782;9.190;2023-07-31T09:30:58;10.38;;;2.63;;
24631;SDS011;59977;48.782;9.190;2023-07-31T09:33:24;12.27;;;2.63;;
24631;SDS011;59977;48.782;9.190;2023-07-31T09:35:50;17.98;;;2.55;;
24631;SDS011;59977;48.782;9.190;2023-07-31T09:38:16;12.00;;;3.03;;
24631;SDS011;59977;48.782;9.190;2023-07-31T09:40:48;9.57;;;2.88;;
24631;SDS011;59977;48.782;9.190;2023-07-31T09:43:18;11.50;;;2.60;;
24631;SDS011;59977;48.782;9.190;2023-07-31T09:45:45;11.15;;;2.47;;
24631;SDS011;59977;48.782;9.190;2023-07-31T09:48:12;5.72;;;2.45;;
24631;SDS011;59977;48.782;9.190;2023-07-31T09:50:43;5.87;;;2.70;;
24631;SDS011;59977;48.782;9.190;2023-07-31T09:53:09;7.60;;;2.70;;
24631;SDS011;59977;48.782;9.190;2023-07-31T09:55:36;9.10;;;2.97;;
24631;SDS011;59977;48.782;9.190;2023-07-31T09:58:03;10.20;;;2.30;;
24631;SDS011;59977;48.782;9.190;2023-07-31T10:00:29;9.10;;;2.50;;
24631;SDS011;59977;48.782;9.190;2023-07-31T10:02:57;9.13;;;2.75;;
24631;SDS011;59977;48.782;9.190;2023-07-31T10:05:24;9.77;;;2.55;;
24631;SDS011;59977;48.782;9.190;2023-07-31T10:07:53;7.78;;;2.88;;
24631;SDS011;59977;48.782;9.190;2023-07-31T10:10:21;9.00;;;2.85;;
24631;SDS011;59977;48.782;9.190;2023-07-31T10:12:48;8.20;;;2.83;;
24631;SDS011;59977;48.782;9.190;2023-07-31T10:15:17;7.97;;;3.00;;
24631;SDS011;59977;48.782;9.190;2023-07-31T10:17:44;6.75;;;2.65;;
24631;SDS011;59977;48.782;9.190;2023-07-31T10:20:11;12.18;;;3.40;;
24631;SDS011;59977;48.782;9.190;2023-07-31T10:22:37;11.05;;;2.47;;
24631;SDS011;59977;48.782;9.190;2023-07-31T10:25:04;10.02;;;3.30;;
24631;SDS011;59977;48.782;9.190;2023-07-31T10:27:34;11.82;;;3.22;;
24631;SDS011;59977;48.782;9.190;2023-07-31T10:30:01;8.23;;;2.95;;
24631;SDS011;59977;48.782;9.190;2023-07-31T10:32:29;5.15;;;2.58;;
24631;SDS011;59977;48.782;9.190;2023-07-31T10:34:56;8.63;;;3.00;;
24631;SDS011;59977;48.782;9.190;2023-07-31T10:37:25;10.07;;;2.95;;
24631;SDS011;59977;48.782;9.190;2023-07-31T10:40:02;8.35;;;2.80;;
24631;SDS011;59977;48.782;9.190;2023-07-31T10:42:34;12.23;;;3.25;;
24631;SDS011;59977;48.782;9.190;2023-07-31T10:45:04;12.82;;;3.33;;
24631;SDS011;59977;48.782;9.190;2023-07-31T10:47:30;9.88;;;2.97;;
24631;SDS011;59977;48.782;9.190;2023-07-31T10:50:10;14.63;;;3.55;;
24631;SDS011;59977;48.782;9.190;2023-07-31T10:52:36;9.20;;;2.78;;
24631;SDS011;59977;48.782;9.190;2023-07-31T10:58:07;10.15;;;3.28;;
24631;SDS011;59977;48.782;9.190;2023-07-31T11:00:32;8.48;;;3.17;;
24631;SDS011;59977;48.782;9.190;2023-07-31T11:08:30;8.70;;;2.80;;
24631;SDS011;59977;48.782;9.190;2023-07-31T11:15:54;10.65;;;3.55;;
24631;SDS011;59977;48.782;9.190;2023-07-31T11:18:20;8.73;;;2.80;;
24631;SDS011;59977;48.782;9.190;2023-07-31T11:20:46;15.90;;;4.45;;
24631;SDS011;59977;48.782;9.190;2023-07-31T11:23:11;10.55;;;3.65;;
24631;SDS011;59977;48.782;9.190;2023-07-31T11:25:38;13.73;;;3.00;;
24631;SDS011;59977;48.782;9.190;2023-07-31T11:28:07;12.45;;;2.75;;
24631;SDS011;59977;48.782;9.190;2023-07-31T11:30:34;9.20;;;2.70;;
24631;SDS011;59977;48.782;9.190;2023-07-31T11:33:01;9.98;;;3.30;;
24631;SDS011;59977;48.782;9.190;2023-07-31T11:35:33;11.80;;;2.90;;
24631;SDS011;59977;48.782;9.190;2023-07-31T11:38:01;6.43;;;2.78;;
24631;SDS011;59977;48.782;9.190;2023-07-31T11:40:27;11.18;;;3.08;;
24631;SDS011;59977;48.782;9.190;2023-07-31T11:43:03;6.70;;;2.97;;
24631;SDS011;59977;48.782;9.190;2023-07-31T11:45:29;6.20;;;2.88;;
24631;SDS011;59977;48.782;9.190;2023-07-31T11:47:56;7.28;;;2.85;;
24631;SDS011;59977;48.782;9.190;2023-07-31T11:50:22;6.78;;;3.08;;
24631;SDS011;59977;48.782;9.190;2023-07-31T11:52:57;10.85;;;2.83;;
24631;SDS011;59977;48.782;9.190;2023-07-31T11:55:25;11.75;;;3.20;;
24631;SDS011;59977;48.782;9.190;2023-07-31T11:57:51;6.97;;;2.65;;
24631;SDS011;59977;48.782;9.190;2023-07-31T12:00:19;7.60;;;2.80;;
24631;SDS011;59977;48.782;9.190;2023-07-31T12:02:45;8.95;;;3.00;;
24631;SDS011;59977;48.782;9.190;2023-07-31T12:05:12;6.88;;;2.63;;
24631;SDS011;59977;48.782;9.190;2023-07-31T12:07:51;9.07;;;2.70;;
24631;SDS011;59977;48.782;9.190;2023-07-31T12:15:29;8.93;;;2.90;;
24631;SDS011;59977;48.782;9.190;2023-07-31T12:17:57;10.23;;;2.78;;
24631;SDS011;59977;48.782;9.190;2023-07-31T12:20:23;10.32;;;2.83;;
24631;SDS011;59977;48.782;9.190;2023-07-31T12:22:49;9.73;;;3.70;;
24631;SDS011;59977;48.782;9.190;2023-07-31T12:25:17;16.58;;;3.67;;
24631;SDS011;59977;48.782;9.190;2023-07-31T12:27:46;7.28;;;2.92;;
24631;SDS011;59977;48.782;9.190;2023-07-31T12:30:28;9.90;;;3.25;;
24631;SDS011;59977;48.782;9.190;2023-07-31T12:33:02;9.93;;;3.30;;
24631;SDS011;59977;48.782;9.190;2023-07-31T12:35:35;11.07;;;2.80;;
24631;SDS011;59977;48.782;9.190;2023-07-31T12:38:02;8.45;;;3.10;;
24631;SDS011;59977;48.782;9.190;2023-07-31T12:40:28;7.07;;;2.95;;
24631;SDS011;59977;48.782;9.190;2023-07-31T12:42:53;7.07;;;3.17;;
24631;SDS011;59977;48.782;9.190;2023-07-31T12:45:19;10.45;;;3.20;;
24631;SDS011;59977;48.782;9.190;2023-07-31T12:47:46;8.38;;;2.83;;
24631;SDS011;59977;48.782;9.190;2023-07-31T12:50:12;17.02;;;2.90;;
24631;SDS011;59977;48.782;9.190;2023-07-31T12:52:38;12.68;;;3.33;;
24631;SDS011;59977;48.782;9.190;2023-07-31T12:55:03;14.07;;;3.00;;
24631;SDS011;59977;48.782;9.190;2023-07-31T12:57:29;16.17;;;3.40;;
24631;SDS011;59977;48.782;9.190;2023-07-31T12:59:55;16.42;;;3.10;;
24631;SDS011;59977;48.782;9.190;2023-07-31T13:02:21;7.45;;;3.30;;
24631;SDS011;59977;48.782;9.190;2023-07-31T13:04:47;7.40;;;3.10;;
24631;SDS011;59977;48.782;9.190;2023-07-31T13:07:13;8.48;;;2.72;;
24631;SDS011;59977;48.782;9.190;2023-07-31T13:09:39;11.13;;;3.55;;
24631;SDS011;59977;48.782;9.190;2023-07-31T13:12:05;4.68;;;2.60;;
24631;SDS011;59977;48.782;9.190;2023-07-31T13:14:31;6.82;;;2.80;;
24631;SDS011;59977;48.782;9.190;2023-07-31T13:16:56;8.98;;;2.85;;
24631;SDS011;59977;48.782;9.190;2023-07-31T13:19:22;5.78;;;2.97;;
24631;SDS011;59977;48.782;9.190;2023-07-31T13:21:48;7.57;;;2.90;;
24631;SDS011;59977;48.782;9.190;2023-07-31T13:24:14;6.90;;;3.17;;
24631;SDS011;59977;48.782;9.190;2023-07-31T13:26:39;6.35;;;2.70;;
24631;SDS011;59977;48.782;9.190;2023-07-31T13:29:05;12.70;;;2.88;;
24631;SDS011;59977;48.782;9.190;2023-07-31T13:31:30;10.45;;;2.90;;
24631;SDS011;59977;48.782;9.190;2023-07-31T13:33:56;8.07;;;2.53;;
24631;SDS011;59977;48.782;9.190;2023-07-31T13:36:22;9.80;;;2.63;;
24631;SDS011;59977;48.782;9.190;2023-07-31T13:38:48;6.53;;;2.70;;
24631;SDS011;59977;48.782;9.190;2023-07-31T13:41:13;7.20;;;2.80;;
24631;SDS011;59977;48.782;9.190;2023-07-31T13:43:39;6.50;;;2.63;;
24631;SDS011;59977;48.782;9.190;2023-07-31T13:46:06;6.75;;;2.78;;
24631;SDS011;59977;48.782;9.190;2023-07-31T13:48:35;6.78;;;2.90;;
24631;SDS011;59977;48.782;9.190;2023-07-31T13:51:01;7.72;;;3.00;;
24631;SDS011;59977;48.782;9.190;2023-07-31T13:53:27;4.95;;;2.85;;
24631;SDS011;59977;48.782;9.190;2023-07-31T13:55:53;11.07;;;2.30;;
24631;SDS011;59977;48.782;9.190;2023-07-31T13:58:18;6.82;;;2.60;;
24631;SDS011;59977;48.782;9.190;2023-07-31T14:00:44;4.45;;;2.60;;
24631;SDS011;59977;48.782;9.190;2023-07-31T14:03:11;10.05;;;2.95;;
24631;SDS011;59977;48.782;9.190;2023-07-31T14:05:37;10.25;;;2.78;;
24631;SDS011;59977;48.782;9.190;2023-07-31T14:08:03;6.45;;;2.78;;
24631;SDS011;59977;48.782;9.190;2023-07-31T14:10:28;8.70;;;2.95;;
24631;SDS011;59977;48.782;9.190;2023-07-31T14:12:54;6.03;;;2.75;;
24631;SDS011;59977;48.782;9.190;2023-07-31T14:15:20;5.53;;;2.85;;
24631;SDS011;59977;48.782;9.190;2023-07-31T14:17:46;6.30;;;3.05;;
24631;SDS011;59977;48.782;9.190;2023-07-31T14:20:12;6.75;;;2.60;;
24631;SDS011;59977;48.782;9.190;2023-07-31T14:22:37;9.70;;;3.35;;
24631;SDS011;59977;48.782;9.190;2023-07-31T14:25:03;7.65;;;2.92;;
24631;SDS011;59977;48.782;9.190;2023-07-31T14:27:29;7.50;;;2.80;;
24631;SDS011;59977;48.782;9.190;2023-07-31T14:29:55;8.88;;;2.88;;
24631;SDS011;59977;48.782;9.190;2023-07-31T14:32:21;6.78;;;2.78;;
24631;SDS011;59977;48.782;9.190;2023-07-31T14:34:51;10.02;;;2.85;;
24631;SDS011;59977;48.782;9.190;2023-07-31T14:37:16;4.80;;;2.85;;
24631;SDS011;59977;48.782;9.190;2023-07-31T14:39:42;7.30;;;2.83;;
24631;SDS011;59977;48.782;9.190;2023-07-31T14:42:10;7.25;;;2.90;;
24631;SDS011;59977;48.782;9.190;2023-07-31T14:44:36;11.63;;;3.00;;
24631;SDS011;59977;48.782;9.190;2023-07-31T14:47:02;6.03;;;2.75;;
24631;SDS011;59977;48.782;9.190;2023-07-31T14:49:27;7.82;;;2.97;;
24631;SDS011;59977;48.782;9.190;2023-07-31T14:51:54;7.93;;;3.10;;
24631;SDS011;59977;48.782;9.190;2023-07-31T14:54:19;8.50;;;3.30;;
24631;SDS011;59977;48.782;9.190;2023-07-31T14:56:45;7.28;;;3.17;;
24631;SDS011;59977;48.782;9.190;2023-07-31T14:59:11;10.15;;;3.10;;
24631;SDS011;59977;48.782;9.190;2023-07-31T15:01:37;8.35;;;2.83;;
24631;SDS011;59977;48.782;9.190;2023-07-31T15:04:03;6.18;;;2.85;;